sensor_id;sensor_type;location;lat;lon;timestamp;pressure;altitude;pressure_sealevel;temperature;humidity
43312;BME280;30041;48.300;16.352;2023-02-28T00:01:42;100814.41;;;22.02;40.70
43312;BME280;30041;48.300;16.352;2023-02-28T00:04:07;100811.47;;;22.03;40.52
43312;BME280;30041;48.300;16.352;2023-02-28T00:06:33;100812.53;;;22.02;40.57
43312;BME280;30041;48.300;16.352;2023-02-28T00:08:58;100808.78;;;22.03;40.67
43312;BME280;30041;48.300;16.352;2023-02-28T00:11:24;100809.84;;;22.02;40.53
43312;BME280;30041;48.300;16.352;2023-02-28T00:13:49;100813.56;;;22.01;40.48
43312;BME280;30041;48.300;16.352;2023-02-28T00:16:18;100815.22;;;22.02;40.46
43312;BME280;30041;48.300;16.352;2023-02-28T00:18:44;100814.41;;;22.02;40.53
43312;BME280;30041;48.300;16.352;2023-02-28T00:21:10;100813.34;;;22.03;40.50
43312;BME280;30041;48.300;16.352;2023-02-28T00:23:35;100804.63;;;22.01;40.78
43312;BME280;30041;48.300;16.352;2023-02-28T00:26:01;100813.56;;;22.01;40.70
43312;BME280;30041;48.300;16.352;2023-02-28T00:28:27;100811.47;;;22.03;40.60
43312;BME280;30041;48.300;16.352;2023-02-28T00:30:52;100813.78;;;22.00;40.61
43312;BME280;30041;48.300;16.352;2023-02-28T00:33:18;100809.84;;;22.02;40.80
43312;BME280;30041;48.300;16.352;2023-02-28T00:35:44;100821.66;;;22.01;40.51
43312;BME280;30041;48.300;16.352;2023-02-28T00:38:09;100818.75;;;22.03;40.40
43312;BME280;30041;48.300;16.352;2023-02-28T00:40:35;100816.88;;;22.03;40.54
43312;BME280;30041;48.300;16.352;2023-02-28T00:43:00;100816.06;;;22.03;40.64
43312;BME280;30041;48.300;16.352;2023-02-28T00:45:26;100817.94;;;22.02;40.64
43312;BME280;30041;48.300;16.352;2023-02-28T00:47:52;100816.88;;;22.03;40.47
43312;BME280;30041;48.300;16.352;2023-02-28T00:50:20;100817.72;;;22.04;40.52
43312;BME280;30041;48.300;16.352;2023-02-28T00:52:47;100813.16;;;22.04;40.60
43312;BME280;30041;48.300;16.352;2023-02-28T00:55:12;100812.53;;;22.02;40.42
43312;BME280;30041;48.300;16.352;2023-02-28T00:57:38;100824.16;;;22.03;40.63
43312;BME280;30041;48.300;16.352;2023-02-28T01:00:05;100820.63;;;22.02;40.49
43312;BME280;30041;48.300;16.352;2023-02-28T01:02:30;100816.25;;;22.01;40.41
43312;BME280;30041;48.300;16.352;2023-02-28T01:04:56;100815.22;;;22.02;40.44
43312;BME280;30041;48.300;16.352;2023-02-28T01:07:22;100811.72;;;22.02;40.49
43312;BME280;30041;48.300;16.352;2023-02-28T01:09:48;100817.94;;;22.02;40.46
43312;BME280;30041;48.300;16.352;2023-02-28T01:12:13;100816.88;;;22.03;40.51
43312;BME280;30041;48.300;16.352;2023-02-28T01:14:39;100814.41;;;22.02;40.50
43312;BME280;30041;48.300;16.352;2023-02-28T01:17:04;100813.34;;;22.03;40.58
43312;BME280;30041;48.300;16.352;2023-02-28T01:19:30;100811.91;;;22.00;40.65
43312;BME280;30041;48.300;16.352;2023-02-28T01:21:55;100816.06;;;22.03;40.40
43312;BME280;30041;48.300;16.352;2023-02-28T01:24:21;100815.22;;;22.02;40.28
43312;BME280;30041;48.300;16.352;2023-02-28T01:26:47;100815.22;;;22.02;40.56
43312;BME280;30041;48.300;16.352;2023-02-28T01:29:13;100811.91;;;22.00;40.47
43312;BME280;30041;48.300;16.352;2023-02-28T01:31:38;100811.47;;;22.03;40.36
43312;BME280;30041;48.300;16.352;2023-02-28T01:34:04;100813.97;;;22.05;40.36
43312;BME280;30041;48.300;16.352;2023-02-28T01:36:29;100822.28;;;22.03;40.47
43312;BME280;30041;48.300;16.352;2023-02-28T01:38:55;100817.94;;;22.02;40.52
43312;BME280;30041;48.300;16.352;2023-02-28T01:41:26;100820.63;;;22.02;40.54
43312;BME280;30041;48.300;16.352;2023-02-28T01:44:01;100817.94;;;22.02;40.45
43312;BME280;30041;48.300;16.352;2023-02-28T01:46:27;100814.41;;;22.02;40.47
43312;BME280;30041;48.300;16.352;2023-02-28T01:51:38;100816.88;;;22.03;40.51
43312;BME280;30041;48.300;16.352;2023-02-28T01:54:11;100817.94;;;22.02;40.58
43312;BME280;30041;48.300;16.352;2023-02-28T01:56:37;100817.94;;;22.02;40.52
43312;BME280;30041;48.300;16.352;2023-02-28T01:59:03;100816.88;;;22.03;40.35
43312;BME280;30041;48.300;16.352;2023-02-28T02:01:31;100817.50;;;21.98;40.58
43312;BME280;30041;48.300;16.352;2023-02-28T02:03:59;100815.22;;;22.02;40.30
43312;BME280;30041;48.300;16.352;2023-02-28T02:06:44;100812.13;;;21.98;40.45
43312;BME280;30041;48.300;16.352;2023-02-28T02:09:11;100815.03;;;21.97;40.60
43312;BME280;30041;48.300;16.352;2023-02-28T02:11:39;100817.50;;;21.98;40.48
43312;BME280;30041;48.300;16.352;2023-02-28T02:14:30;100814.00;;;21.98;40.53
43312;BME280;30041;48.300;16.352;2023-02-28T02:17:10;100818.94;;;22.01;40.41
43312;BME280;30041;48.300;16.352;2023-02-28T02:23:03;100827.69;;;21.96;40.46
43312;BME280;30041;48.300;16.352;2023-02-28T02:28:26;100822.91;;;21.98;40.47
43312;BME280;30041;48.300;16.352;2023-02-28T02:34:26;100823.56;;;21.94;40.65
43312;BME280;30041;48.300;16.352;2023-02-28T02:39:47;100830.19;;;21.98;40.50
43312;BME280;30041;48.300;16.352;2023-02-28T02:42:27;100825.84;;;21.97;40.63
43312;BME280;30041;48.300;16.352;2023-02-28T02:45:10;100832.25;;;21.96;40.53
43312;BME280;30041;48.300;16.352;2023-02-28T02:47:38;100827.50;;;21.98;40.25
43312;BME280;30041;48.300;16.352;2023-02-28T02:50:08;100829.56;;;21.96;40.37
43312;BME280;30041;48.300;16.352;2023-02-28T02:52:42;100826.66;;;21.97;40.39
43312;BME280;30041;48.300;16.352;2023-02-28T02:55:10;100825.84;;;21.97;40.59
43312;BME280;30041;48.300;16.352;2023-02-28T02:57:58;100825.84;;;21.97;40.55
43312;BME280;30041;48.300;16.352;2023-02-28T03:00:30;100829.56;;;21.96;40.34
43312;BME280;30041;48.300;16.352;2023-02-28T03:02:58;100830.19;;;21.98;40.41
43312;BME280;30041;48.300;16.352;2023-02-28T03:05:33;100830.19;;;21.98;40.35
43312;BME280;30041;48.300;16.352;2023-02-28T03:08:02;100822.72;;;21.93;40.56
43312;BME280;30041;48.300;16.352;2023-02-28T03:13:52;100821.66;;;21.94;40.30
43312;BME280;30041;48.300;16.352;2023-02-28T03:18:58;100822.72;;;21.93;40.33
43312;BME280;30041;48.300;16.352;2023-02-28T03:21:43;100827.31;;;21.93;40.61
43312;BME280;30041;48.300;16.352;2023-02-28T03:24:31;100825.22;;;21.95;40.49
43312;BME280;30041;48.300;16.352;2023-02-28T03:27:07;100820.22;;;21.92;40.48
43312;BME280;30041;48.300;16.352;2023-02-28T03:29:38;100821.91;;;21.93;40.49
43312;BME280;30041;48.300;16.352;2023-02-28T03:32:24;100825.22;;;21.95;40.26
43312;BME280;30041;48.300;16.352;2023-02-28T03:35:04;100826.03;;;21.95;40.33
43312;BME280;30041;48.300;16.352;2023-02-28T03:37:34;100824.38;;;21.94;40.43
43312;BME280;30041;48.300;16.352;2023-02-28T03:40:07;100820.66;;;21.95;40.44
43312;BME280;30041;48.300;16.352;2023-02-28T03:42:36;100810.66;;;21.96;40.33
43312;BME280;30041;48.300;16.352;2023-02-28T03:45:08;100812.34;;;21.97;40.32
43312;BME280;30041;48.300;16.352;2023-02-28T03:47:46;100817.75;;;21.97;40.32
43312;BME280;30041;48.300;16.352;2023-02-28T03:50:21;100819.81;;;21.95;40.47
43312;BME280;30041;48.300;16.352;2023-02-28T03:52:52;100818.16;;;21.94;40.57
43312;BME280;30041;48.300;16.352;2023-02-28T03:55:21;100816.06;;;21.96;40.49
43312;BME280;30041;48.300;16.352;2023-02-28T04:00:38;100820.03;;;21.93;40.41
43312;BME280;30041;48.300;16.352;2023-02-28T04:03:04;100821.91;;;21.93;40.45
43312;BME280;30041;48.300;16.352;2023-02-28T04:05:32;100814.63;;;21.93;40.48
43312;BME280;30041;48.300;16.352;2023-02-28T04:08:06;100821.28;;;21.91;40.48
43312;BME280;30041;48.300;16.352;2023-02-28T04:10:33;100826.69;;;21.91;40.59
43312;BME280;30041;48.300;16.352;2023-02-28T04:12:59;100824.81;;;21.91;40.39
43312;BME280;30041;48.300;16.352;2023-02-28T04:15:24;100834.53;;;21.92;40.43
43312;BME280;30041;48.300;16.352;2023-02-28T04:17:50;100831.03;;;21.92;40.38
43312;BME280;30041;48.300;16.352;2023-02-28T04:20:16;100823.16;;;21.90;40.53
43312;BME280;30041;48.300;16.352;2023-02-28T04:22:41;100821.69;;;21.88;40.59
43312;BME280;30041;48.300;16.352;2023-02-28T04:25:07;100823.38;;;21.89;40.58
43312;BME280;30041;48.300;16.352;2023-02-28T04:27:33;100823.16;;;21.90;40.44
43312;BME280;30041;48.300;16.352;2023-02-28T04:29:59;100827.72;;;21.90;40.43
43312;BME280;30041;48.300;16.352;2023-02-28T04:32:24;100825.63;;;21.92;40.49
43312;BME280;30041;48.300;16.352;2023-02-28T04:34:50;100832.91;;;21.91;40.38
43312;BME280;30041;48.300;16.352;2023-02-28T04:37:15;100830.63;;;21.88;40.47
43312;BME280;30041;48.300;16.352;2023-02-28T04:39:41;100830.41;;;21.90;40.59
43312;BME280;30041;48.300;16.352;2023-02-28T04:42:07;100834.16;;;21.89;40.46
43312;BME280;30041;48.300;16.352;2023-02-28T04:44:33;100837.47;;;21.91;40.19
43312;BME280;30041;48.300;16.352;2023-02-28T04:46:58;100836.84;;;21.89;40.43
43312;BME280;30041;48.300;16.352;2023-02-28T04:49:24;100838.72;;;21.88;40.61
43312;BME280;30041;48.300;16.352;2023-02-28T04:51:49;100833.09;;;21.90;40.38
43312;BME280;30041;48.300;16.352;2023-02-28T04:54:15;100836.84;;;21.89;40.38
43312;BME280;30041;48.300;16.352;2023-02-28T04:56:40;100839.56;;;21.89;40.32
43312;BME280;30041;48.300;16.352;2023-02-28T04:59:06;100838.72;;;21.88;40.44
43312;BME280;30041;48.300;16.352;2023-02-28T05:01:33;100838.31;;;21.91;40.50
43312;BME280;30041;48.300;16.352;2023-02-28T05:04:01;100843.50;;;21.93;40.36
43312;BME280;30041;48.300;16.352;2023-02-28T05:06:29;100842.25;;;21.95;40.27
43312;BME280;30041;48.300;16.352;2023-02-28T05:08:55;100840.97;;;21.98;40.35
43312;BME280;30041;48.300;16.352;2023-02-28T05:11:30;100835.38;;;22.00;40.25
43312;BME280;30041;48.300;16.352;2023-02-28T05:13:55;100830.81;;;22.00;40.19
43312;BME280;30041;48.300;16.352;2023-02-28T05:16:21;100822.50;;;22.02;40.25
43312;BME280;30041;48.300;16.352;2023-02-28T05:18:47;100827.28;;;22.00;40.42
43312;BME280;30041;48.300;16.352;2023-02-28T05:21:36;100832.25;;;21.96;40.32
43312;BME280;30041;48.300;16.352;2023-02-28T05:24:04;100833.09;;;21.96;40.35
43312;BME280;30041;48.300;16.352;2023-02-28T05:26:30;100834.53;;;21.99;40.26
43312;BME280;30041;48.300;16.352;2023-02-28T05:28:56;100830.81;;;22.00;40.20
43312;BME280;30041;48.300;16.352;2023-02-28T05:31:22;100837.47;;;21.97;40.46
43312;BME280;30041;48.300;16.352;2023-02-28T05:33:48;100837.03;;;22.01;40.23
43312;BME280;30041;48.300;16.352;2023-02-28T05:36:13;100843.47;;;22.00;40.23
43312;BME280;30041;48.300;16.352;2023-02-28T05:38:39;100841.41;;;22.02;40.25
43312;BME280;30041;48.300;16.352;2023-02-28T05:41:09;100848.66;;;22.01;40.19
43312;BME280;30041;48.300;16.352;2023-02-28T05:43:35;100847.44;;;21.97;40.26
43312;BME280;30041;48.300;16.352;2023-02-28T05:46:09;100849.69;;;22.00;40.20
43312;BME280;30041;48.300;16.352;2023-02-28T05:48:36;100855.31;;;21.98;40.31
43312;BME280;30041;48.300;16.352;2023-02-28T05:51:03;100858.00;;;21.98;40.04
43312;BME280;30041;48.300;16.352;2023-02-28T05:53:29;100861.13;;;22.02;40.36
43312;BME280;30041;48.300;16.352;2023-02-28T05:55:55;100862.38;;;22.00;40.20
43312;BME280;30041;48.300;16.352;2023-02-28T05:58:21;100865.06;;;22.00;40.19
43312;BME280;30041;48.300;16.352;2023-02-28T06:00:47;100861.31;;;22.01;40.30
43312;BME280;30041;48.300;16.352;2023-02-28T06:03:13;100870.47;;;22.00;40.42
43312;BME280;30041;48.300;16.352;2023-02-28T06:05:38;100862.38;;;22.00;40.41
43312;BME280;30041;48.300;16.352;2023-02-28T06:08:04;100864.22;;;21.99;40.17
43312;BME280;30041;48.300;16.352;2023-02-28T06:10:30;100865.91;;;22.00;40.26
43312;BME280;30041;48.300;16.352;2023-02-28T06:12:59;100870.69;;;21.98;40.43
43312;BME280;30041;48.300;16.352;2023-02-28T06:15:25;100866.53;;;22.02;40.29
43312;BME280;30041;48.300;16.352;2023-02-28T06:17:51;100867.97;;;21.98;40.59
43312;BME280;30041;48.300;16.352;2023-02-28T06:20:16;100865.91;;;22.00;40.41
43312;BME280;30041;48.300;16.352;2023-02-28T06:22:42;100870.03;;;22.03;40.26
43312;BME280;30041;48.300;16.352;2023-02-28T06:25:09;100872.13;;;22.01;40.35
43312;BME280;30041;48.300;16.352;2023-02-28T06:27:35;100869.03;;;22.04;40.14
43312;BME280;30041;48.300;16.352;2023-02-28T06:30:02;100871.72;;;22.04;40.33
43312;BME280;30041;48.300;16.352;2023-02-28T06:32:27;100875.09;;;21.66;40.41
43312;BME280;30041;48.300;16.352;2023-02-28T06:34:53;100879.59;;;21.39;41.30
43312;BME280;30041;48.300;16.352;2023-02-28T06:37:18;100883.97;;;21.26;41.57
43312;BME280;30041;48.300;16.352;2023-02-28T06:39:44;100886.84;;;21.18;41.60
43312;BME280;30041;48.300;16.352;2023-02-28T06:42:10;100891.63;;;21.16;41.60
43312;BME280;30041;48.300;16.352;2023-02-28T06:44:35;100890.34;;;21.12;41.76
43312;BME280;30041;48.300;16.352;2023-02-28T06:47:02;100893.69;;;21.14;41.74
43312;BME280;30041;48.300;16.352;2023-02-28T06:49:29;100903.00;;;21.11;41.51
43312;BME280;30041;48.300;16.352;2023-02-28T06:51:55;100901.59;;;21.35;41.00
43312;BME280;30041;48.300;16.352;2023-02-28T06:54:21;100907.63;;;21.38;40.61
43312;BME280;30041;48.300;16.352;2023-02-28T06:56:46;100898.75;;;21.50;40.09
43312;BME280;30041;48.300;16.352;2023-02-28T06:59:12;100906.63;;;21.65;40.08
43312;BME280;30041;48.300;16.352;2023-02-28T07:01:38;100901.44;;;21.70;40.06
43312;BME280;30041;48.300;16.352;2023-02-28T07:04:05;100902.66;;;21.74;39.90
43312;BME280;30041;48.300;16.352;2023-02-28T07:06:31;100902.06;;;21.79;39.84
43312;BME280;30041;48.300;16.352;2023-02-28T07:08:57;100904.97;;;21.84;39.93
43312;BME280;30041;48.300;16.352;2023-02-28T07:11:24;100910.16;;;21.86;39.76
43312;BME280;30041;48.300;16.352;2023-02-28T07:13:50;100907.47;;;21.86;39.82
43312;BME280;30041;48.300;16.352;2023-02-28T07:16:16;100902.06;;;21.86;39.94
43312;BME280;30041;48.300;16.352;2023-02-28T07:18:41;100907.03;;;21.89;40.02
43312;BME280;30041;48.300;16.352;2023-02-28T07:21:09;100916.16;;;21.88;39.95
43312;BME280;30041;48.300;16.352;2023-02-28T07:23:35;100911.38;;;21.90;39.90
43312;BME280;30041;48.300;16.352;2023-02-28T07:26:01;100917.41;;;21.92;39.96
43312;BME280;30041;48.300;16.352;2023-02-28T07:28:27;100915.13;;;21.89;40.09
43312;BME280;30041;48.300;16.352;2023-02-28T07:30:52;100917.41;;;21.92;39.97
43312;BME280;30041;48.300;16.352;2023-02-28T07:33:18;100919.91;;;21.93;39.81
43312;BME280;30041;48.300;16.352;2023-02-28T07:35:44;100924.25;;;21.94;40.00
43312;BME280;30041;48.300;16.352;2023-02-28T07:38:09;100927.16;;;21.93;39.93
43312;BME280;30041;48.300;16.352;2023-02-28T07:40:36;100924.47;;;21.93;39.95
43312;BME280;30041;48.300;16.352;2023-02-28T07:43:02;100925.09;;;21.95;40.01
43312;BME280;30041;48.300;16.352;2023-02-28T07:45:29;100923.22;;;21.95;40.03
43312;BME280;30041;48.300;16.352;2023-02-28T07:47:55;100932.56;;;21.93;39.95
43312;BME280;30041;48.300;16.352;2023-02-28T07:50:21;100927.78;;;21.95;40.05
43312;BME280;30041;48.300;16.352;2023-02-28T07:52:47;100937.53;;;21.96;40.03
43312;BME280;30041;48.300;16.352;2023-02-28T07:55:13;100932.78;;;21.91;40.21
43312;BME280;30041;48.300;16.352;2023-02-28T07:57:39;100938.16;;;21.98;40.02
43312;BME280;30041;48.300;16.352;2023-02-28T08:00:07;100934.41;;;21.99;40.11
43312;BME280;30041;48.300;16.352;2023-02-28T08:02:33;100935.66;;;21.96;40.25
43312;BME280;30041;48.300;16.352;2023-02-28T08:04:59;100931.13;;;21.97;40.02
43312;BME280;30041;48.300;16.352;2023-02-28T08:07:25;100934.63;;;21.97;40.20
43312;BME280;30041;48.300;16.352;2023-02-28T08:09:50;100941.06;;;21.96;40.12
43312;BME280;30041;48.300;16.352;2023-02-28T08:12:16;100929.44;;;21.96;40.25
43312;BME280;30041;48.300;16.352;2023-02-28T08:14:41;100929.44;;;21.96;40.14
43312;BME280;30041;48.300;16.352;2023-02-28T08:17:07;100934.00;;;21.95;40.22
43312;BME280;30041;48.300;16.352;2023-02-28T08:19:32;100931.13;;;21.97;40.43
43312;BME280;30041;48.300;16.352;2023-02-28T08:21:58;100933.81;;;21.97;40.11
43312;BME280;30041;48.300;16.352;2023-02-28T08:24:24;100936.50;;;21.97;40.04
43312;BME280;30041;48.300;16.352;2023-02-28T08:26:49;100944.63;;;21.97;40.18
43312;BME280;30041;48.300;16.352;2023-02-28T08:29:15;100938.97;;;21.98;40.33
43312;BME280;30041;48.300;16.352;2023-02-28T08:31:41;100945.22;;;21.99;40.19
43312;BME280;30041;48.300;16.352;2023-02-28T08:34:08;100940.66;;;22.00;40.16
43312;BME280;30041;48.300;16.352;2023-02-28T08:36:34;100942.31;;;22.01;40.08
43312;BME280;30041;48.300;16.352;2023-02-28T08:39:00;100942.50;;;21.99;40.32
43312;BME280;30041;48.300;16.352;2023-02-28T08:41:26;100944.81;;;22.02;40.11
43312;BME280;30041;48.300;16.352;2023-02-28T08:43:52;100938.59;;;22.02;40.20
43312;BME280;30041;48.300;16.352;2023-02-28T08:46:17;100943.34;;;22.00;40.24
43312;BME280;30041;48.300;16.352;2023-02-28T08:48:43;100952.09;;;22.02;40.32
43312;BME280;30041;48.300;16.352;2023-02-28T08:51:15;100950.19;;;22.02;40.36
43312;BME280;30041;48.300;16.352;2023-02-28T08:53:40;100956.44;;;22.03;40.33
43312;BME280;30041;48.300;16.352;2023-02-28T08:56:12;100946.88;;;22.00;40.32
43312;BME280;30041;48.300;16.352;2023-02-28T08:58:38;100950.19;;;22.02;40.19
43312;BME280;30041;48.300;16.352;2023-02-28T09:01:13;100950.59;;;21.99;40.14
43312;BME280;30041;48.300;16.352;2023-02-28T09:03:39;100954.34;;;22.05;40.28
43312;BME280;30041;48.300;16.352;2023-02-28T09:06:05;100949.38;;;22.08;40.33
43312;BME280;30041;48.300;16.352;2023-02-28T09:08:31;100952.25;;;22.13;40.43
43312;BME280;30041;48.300;16.352;2023-02-28T09:10:57;100960.16;;;22.15;40.57
43312;BME280;30041;48.300;16.352;2023-02-28T09:13:24;100957.47;;;22.15;40.66
43312;BME280;30041;48.300;16.352;2023-02-28T09:15:50;100958.47;;;22.21;40.63
43312;BME280;30041;48.300;16.352;2023-02-28T09:18:16;100965.34;;;22.23;40.70
43312;BME280;30041;48.300;16.352;2023-02-28T09:20:43;100960.78;;;22.10;40.45
43312;BME280;30041;48.300;16.352;2023-02-28T09:23:10;100954.78;;;22.02;40.71
43312;BME280;30041;48.300;16.352;2023-02-28T09:25:36;100961.00;;;22.09;40.40
43312;BME280;30041;48.300;16.352;2023-02-28T09:28:02;100954.78;;;22.08;40.61
43312;BME280;30041;48.300;16.352;2023-02-28T09:30:29;100954.34;;;22.11;40.53
43312;BME280;30041;48.300;16.352;2023-02-28T09:32:57;100957.69;;;22.07;40.55
43312;BME280;30041;48.300;16.352;2023-02-28T09:35:24;100952.28;;;22.07;40.61
43312;BME280;30041;48.300;16.352;2023-02-28T09:37:51;100954.53;;;22.10;40.56
43312;BME280;30041;48.300;16.352;2023-02-28T09:40:17;100955.16;;;22.12;40.63
43312;BME280;30041;48.300;16.352;2023-02-28T09:42:46;100958.94;;;21.77;39.78
43312;BME280;30041;48.300;16.352;2023-02-28T09:47:49;100954.34;;;21.65;40.56
43312;BME280;30041;48.300;16.352;2023-02-28T09:52:49;100953.53;;;21.64;40.66
43312;BME280;30041;48.300;16.352;2023-02-28T09:57:41;100955.19;;;21.65;40.77
43312;BME280;30041;48.300;16.352;2023-02-28T10:00:15;100947.09;;;21.65;40.24
43312;BME280;30041;48.300;16.352;2023-02-28T10:05:26;100951.84;;;21.63;40.56
43312;BME280;30041;48.300;16.352;2023-02-28T10:10:50;100951.03;;;21.56;40.89
43312;BME280;30041;48.300;16.352;2023-02-28T10:16:03;100951.03;;;21.49;40.86
43312;BME280;30041;48.300;16.352;2023-02-28T10:18:50;100944.78;;;21.42;41.31
43312;BME280;30041;48.300;16.352;2023-02-28T10:21:25;100949.78;;;21.52;41.26
43312;BME280;30041;48.300;16.352;2023-02-28T10:23:59;100947.50;;;21.49;40.69
43312;BME280;30041;48.300;16.352;2023-02-28T10:26:28;100937.53;;;21.69;40.26
43312;BME280;30041;48.300;16.352;2023-02-28T10:28:56;100943.13;;;21.61;39.94
43312;BME280;30041;48.300;16.352;2023-02-28T10:31:21;100938.16;;;21.58;40.32
43312;BME280;30041;48.300;16.352;2023-02-28T10:33:47;100940.66;;;21.53;40.73
43312;BME280;30041;48.300;16.352;2023-02-28T10:36:18;100948.53;;;21.61;40.65
43312;BME280;30041;48.300;16.352;2023-02-28T10:38:45;100941.94;;;21.70;40.58
43312;BME280;30041;48.300;16.352;2023-02-28T10:41:14;100939.22;;;21.57;40.84
43312;BME280;30041;48.300;16.352;2023-02-28T10:43:41;100933.81;;;21.44;41.36
43312;BME280;30041;48.300;16.352;2023-02-28T10:51:23;100930.69;;;21.47;41.24
43312;BME280;30041;48.300;16.352;2023-02-28T10:53:51;100931.13;;;21.50;41.21
43312;BME280;30041;48.300;16.352;2023-02-28T10:56:20;100934.00;;;21.49;41.14
43312;BME280;30041;48.300;16.352;2023-02-28T11:01:25;100924.03;;;21.49;41.01
43312;BME280;30041;48.300;16.352;2023-02-28T11:03:59;100922.16;;;21.50;41.30
43312;BME280;30041;48.300;16.352;2023-02-28T11:06:28;100915.75;;;21.58;41.02
43312;BME280;30041;48.300;16.352;2023-02-28T11:08:57;100914.69;;;21.45;41.42
43312;BME280;30041;48.300;16.352;2023-02-28T11:11:26;100914.47;;;21.40;41.45
43312;BME280;30041;48.300;16.352;2023-02-28T11:13:56;100905.34;;;21.34;41.69
43312;BME280;30041;48.300;16.352;2023-02-28T11:16:33;100909.94;;;21.54;41.25
43312;BME280;30041;48.300;16.352;2023-02-28T11:19:00;100899.16;;;21.41;41.36
43312;BME280;30041;48.300;16.352;2023-02-28T11:21:33;100900.34;;;21.38;41.49
43312;BME280;30041;48.300;16.352;2023-02-28T11:26:47;100888.53;;;21.32;41.28
43312;BME280;30041;48.300;16.352;2023-02-28T11:34:39;100877.75;;;21.26;42.27
43312;BME280;30041;48.300;16.352;2023-02-28T11:37:14;100871.50;;;21.25;42.10
43312;BME280;30041;48.300;16.352;2023-02-28T11:39:41;100869.66;;;21.32;41.88
43312;BME280;30041;48.300;16.352;2023-02-28T11:42:38;100870.28;;;21.34;41.98
43312;BME280;30041;48.300;16.352;2023-02-28T11:45:17;100868.00;;;21.38;42.04
43312;BME280;30041;48.300;16.352;2023-02-28T11:47:48;100863.84;;;21.35;42.14
43312;BME280;30041;48.300;16.352;2023-02-28T11:52:57;100860.09;;;21.36;42.21
43312;BME280;30041;48.300;16.352;2023-02-28T11:55:38;100861.16;;;21.35;42.20
43312;BME280;30041;48.300;16.352;2023-02-28T12:04:11;100855.56;;;21.30;42.18
43312;BME280;30041;48.300;16.352;2023-02-28T12:14:54;100843.53;;;21.33;42.13
43312;BME280;30041;48.300;16.352;2023-02-28T12:20:34;100837.09;;;21.34;42.14
43312;BME280;30041;48.300;16.352;2023-02-28T12:23:43;100834.00;;;21.37;41.97
43312;BME280;30041;48.300;16.352;2023-02-28T12:26:28;100830.66;;;21.35;42.10
43312;BME280;30041;48.300;16.352;2023-02-28T12:29:24;100827.34;;;21.33;42.25
43312;BME280;30041;48.300;16.352;2023-02-28T12:32:11;100831.28;;;21.37;42.32
43312;BME280;30041;48.300;16.352;2023-02-28T12:34:42;100831.06;;;21.39;42.22
43312;BME280;30041;48.300;16.352;2023-02-28T12:37:15;100825.91;;;21.37;42.09
43312;BME280;30041;48.300;16.352;2023-02-28T12:39:44;100819.06;;;21.34;42.21
43312;BME280;30041;48.300;16.352;2023-02-28T12:42:31;100818.63;;;21.31;42.22
43312;BME280;30041;48.300;16.352;2023-02-28T12:45:02;100817.19;;;21.35;41.93
43312;BME280;30041;48.300;16.352;2023-02-28T12:47:29;100815.94;;;21.38;41.88
43312;BME280;30041;48.300;16.352;2023-02-28T12:50:09;100820.28;;;21.39;42.03
43312;BME280;30041;48.300;16.352;2023-02-28T12:52:56;100817.81;;;21.37;42.14
43312;BME280;30041;48.300;16.352;2023-02-28T13:09:38;100808.66;;;21.38;41.92
43312;BME280;30041;48.300;16.352;2023-02-28T13:12:13;100812.41;;;21.30;42.02
43312;BME280;30041;48.300;16.352;2023-02-28T13:14:40;100800.38;;;21.33;41.85
43312;BME280;30041;48.300;16.352;2023-02-28T13:19:43;100798.97;;;21.44;41.43
43312;BME280;30041;48.300;16.352;2023-02-28T13:24:56;100799.13;;;21.35;41.38
43312;BME280;30041;48.300;16.352;2023-02-28T13:27:37;100799.97;;;21.43;40.69
43312;BME280;30041;48.300;16.352;2023-02-28T13:33:36;100795.38;;;20.70;35.08
43312;BME280;30041;48.300;16.352;2023-02-28T13:44:11;100793.94;;;21.54;37.86
43312;BME280;30041;48.300;16.352;2023-02-28T13:49:32;100794.16;;;21.66;38.14
43312;BME280;30041;48.300;16.352;2023-02-28T13:57:42;100790.19;;;21.75;38.68
43312;BME280;30041;48.300;16.352;2023-02-28T14:05:43;100791.19;;;21.81;39.06
43312;BME280;30041;48.300;16.352;2023-02-28T14:08:20;100788.50;;;21.81;39.20
43312;BME280;30041;48.300;16.352;2023-02-28T14:11:01;100794.31;;;21.84;39.24
43312;BME280;30041;48.300;16.352;2023-02-28T14:13:42;100792.88;;;21.82;39.43
43312;BME280;30041;48.300;16.352;2023-02-28T14:16:08;100791.19;;;21.87;39.29
43312;BME280;30041;48.300;16.352;2023-02-28T14:18:38;100786.59;;;21.88;39.29
43312;BME280;30041;48.300;16.352;2023-02-28T14:21:22;100784.75;;;21.88;39.47
43312;BME280;30041;48.300;16.352;2023-02-28T14:27:08;100779.13;;;21.90;39.50
43312;BME280;30041;48.300;16.352;2023-02-28T14:37:31;100777.25;;;21.97;39.70
43312;BME280;30041;48.300;16.352;2023-02-28T14:39:59;100772.25;;;21.94;39.80
43312;BME280;30041;48.300;16.352;2023-02-28T14:42:36;100772.91;;;21.89;39.88
43312;BME280;30041;48.300;16.352;2023-02-28T14:45:02;100769.19;;;21.90;39.89
43312;BME280;30041;48.300;16.352;2023-02-28T14:47:31;100777.66;;;21.94;39.99
43312;BME280;30041;48.300;16.352;2023-02-28T14:49:59;100778.06;;;21.97;39.94
43312;BME280;30041;48.300;16.352;2023-02-28T14:52:27;100771.25;;;21.95;39.85
43312;BME280;30041;48.300;16.352;2023-02-28T14:55:14;100769.56;;;21.94;39.74
43312;BME280;30041;48.300;16.352;2023-02-28T14:57:53;100772.06;;;21.95;39.92
43312;BME280;30041;48.300;16.352;2023-02-28T15:00:31;100780.78;;;21.97;40.09
43312;BME280;30041;48.300;16.352;2023-02-28T15:02:58;100779.72;;;21.98;40.08